Time;durP1;ratioP1;P1;durP2;ratioP2;P2;SDS_P1;SDS_P2;PMS_P1;PMS_P2;Temp;Humidity;BMP_temperature;BMP_pressure;BME280_temperature;BME280_humidity;BME280_pressure;Samples;Min_cycle;Max_cycle;Signal;HPM_P1;HPM_P2
2022/04/17 00:00:22;;;;;;;43.13;23.23;;;7.40;99.90;;;;;;4989019;28;20037;-76
2022/04/17 00:02:47;;;;;;;46.78;23.70;;;7.40;99.90;;;;;;4971723;28;20092;-75
2022/04/17 00:05:13;;;;;;;46.65;24.95;;;7.30;99.90;;;;;;4985805;23;20050;-80
2022/04/17 00:07:39;;;;;;;47.17;25.15;;;7.20;99.90;;;;;;4952016;28;20058;-80
2022/04/17 00:10:08;;;;;;;44.42;24.75;;;7.20;99.90;;;;;;4969913;28;20031;-80
2022/04/17 00:12:34;;;;;;;44.58;24.88;;;7.10;99.90;;;;;;4969428;28;20043;-80
2022/04/17 00:15:01;;;;;;;45.15;23.08;;;7.00;99.90;;;;;;4969586;28;20791;-80
2022/04/17 00:17:27;;;;;;;47.90;25.35;;;7.00;99.90;;;;;;4969507;28;20483;-80
2022/04/17 00:19:53;;;;;;;41.42;23.73;;;6.90;99.90;;;;;;4969309;28;20065;-79
2022/04/17 00:22:18;;;;;;;41.53;23.48;;;6.80;99.90;;;;;;4969266;28;20031;-80
2022/04/17 00:24:44;;;;;;;41.50;23.30;;;6.80;99.90;;;;;;4968959;28;20073;-79
2022/04/17 00:27:10;;;;;;;45.33;24.58;;;6.80;99.90;;;;;;4968886;28;20026;-77
2022/04/17 00:29:36;;;;;;;43.53;22.33;;;6.80;99.90;;;;;;4968716;28;20019;-79
2022/04/17 00:32:02;;;;;;;48.88;25.00;;;6.70;99.90;;;;;;4951718;28;20546;-79
2022/04/17 00:34:29;;;;;;;42.25;23.50;;;6.60;99.90;;;;;;4967587;28;20035;-80
2022/04/17 00:36:59;;;;;;;43.60;24.15;;;6.50;99.90;;;;;;4969026;28;20030;-80
2022/04/17 00:39:25;;;;;;;51.80;23.65;;;6.50;99.90;;;;;;4969431;28;20114;-79
2022/04/17 00:41:53;;;;;;;45.60;24.15;;;6.50;99.90;;;;;;4969288;28;20038;-79
2022/04/17 00:44:18;;;;;;;41.50;21.75;;;6.50;99.90;;;;;;4966256;28;20166;-79
2022/04/17 00:46:44;;;;;;;45.35;22.88;;;6.50;99.90;;;;;;4956942;28;20039;-79
2022/04/17 00:49:10;;;;;;;46.80;25.27;;;6.50;99.90;;;;;;4968241;28;20037;-79
2022/04/17 00:51:37;;;;;;;47.30;24.05;;;6.50;99.90;;;;;;4967793;28;20042;-79
2022/04/17 00:54:04;;;;;;;42.10;24.02;;;6.40;99.90;;;;;;4968527;28;20094;-79
2022/04/17 00:56:31;;;;;;;44.10;23.00;;;6.20;99.90;;;;;;4968513;28;20497;-79
2022/04/17 00:58:57;;;;;;;52.72;25.40;;;6.20;99.90;;;;;;4968833;28;20038;-80
2022/04/17 01:01:24;;;;;;;48.57;25.27;;;6.00;99.90;;;;;;4968257;28;20023;-79
2022/04/17 01:03:50;;;;;;;45.40;23.03;;;5.90;99.90;;;;;;4980953;23;20397;-75
2022/04/17 01:06:17;;;;;;;48.53;25.57;;;5.80;99.90;;;;;;4951707;28;20039;-75
2022/04/17 01:08:43;;;;;;;49.30;24.63;;;5.70;99.90;;;;;;4968659;28;20023;-75
2022/04/17 01:11:10;;;;;;;51.50;24.23;;;5.70;99.90;;;;;;4967910;28;20391;-75
2022/04/17 01:13:39;;;;;;;48.13;24.50;;;5.70;99.90;;;;;;4968600;28;20042;-75
2022/04/17 01:16:06;;;;;;;57.47;26.90;;;5.80;99.90;;;;;;4951150;28;20058;-75
2022/04/17 01:19:01;;;;;;;50.80;25.60;;;5.80;99.90;;;;;;4968318;28;20030;-76
2022/04/17 01:21:27;;;;;;;54.23;26.37;;;5.80;99.90;;;;;;4968701;28;20375;-75
2022/04/17 01:26:56;;;;;;;51.47;24.43;;;5.70;99.90;;;;;;4960651;28;20090;-76
2022/04/17 01:29:22;;;;;;;51.57;26.77;;;5.70;99.90;;;;;;4968185;28;20672;-75
2022/04/17 01:31:48;;;;;;;51.87;26.10;;;5.70;99.90;;;;;;4970584;28;20611;-76
2022/04/17 01:34:18;;;;;;;53.00;25.60;;;5.70;99.90;;;;;;4972169;28;20023;-76
2022/04/17 01:36:45;;;;;;;52.78;25.70;;;5.70;99.90;;;;;;4954805;28;20035;-75
2022/04/17 01:39:13;;;;;;;54.20;26.10;;;5.70;99.90;;;;;;4972334;28;20034;-76
2022/04/17 01:41:40;;;;;;;52.90;27.40;;;5.60;99.90;;;;;;4972589;28;20027;-75
2022/04/17 01:44:06;;;;;;;55.53;26.33;;;5.50;99.90;;;;;;4972115;28;20026;-75
2022/04/17 01:46:33;;;;;;;51.00;25.90;;;5.40;99.90;;;;;;4972033;28;20092;-76
2022/04/17 01:48:59;;;;;;;60.67;28.30;;;5.30;99.90;;;;;;4972476;28;20031;-75
2022/04/17 01:51:24;;;;;;;53.20;25.77;;;5.30;99.90;;;;;;4971852;28;20376;-75
2022/04/17 01:53:50;;;;;;;58.80;26.90;;;5.30;99.90;;;;;;4971925;28;20022;-75
2022/04/17 01:56:18;;;;;;;59.07;27.37;;;5.30;99.90;;;;;;4966860;28;20090;-75
2022/04/17 01:58:44;;;;;;;55.03;26.53;;;5.30;99.90;;;;;;4971355;28;20031;-75
2022/04/17 02:01:10;;;;;;;55.77;27.23;;;5.20;99.90;;;;;;4971830;28;20034;-76
2022/04/17 02:03:36;;;;;;;53.60;26.07;;;5.20;99.90;;;;;;4984161;23;20039;-82
2022/04/17 02:06:01;;;;;;;52.50;24.80;;;5.20;99.90;;;;;;4954120;28;20049;-83
2022/04/17 02:08:28;;;;;;;52.77;23.70;;;5.20;99.90;;;;;;4954253;28;20030;-82
2022/04/17 02:10:57;;;;;;;46.87;23.90;;;5.20;99.90;;;;;;4954742;28;20554;-82
2022/04/17 02:13:23;;;;;;;48.33;23.37;;;5.20;99.90;;;;;;4971933;28;20039;-82
2022/04/17 02:15:53;;;;;;;50.67;22.87;;;5.10;99.90;;;;;;4971607;28;20048;-82
2022/04/17 02:18:22;;;;;;;50.50;24.50;;;5.10;99.90;;;;;;4971506;28;20117;-83
2022/04/17 02:20:48;;;;;;;56.80;26.03;;;5.00;99.90;;;;;;4971768;28;20027;-83
2022/04/17 02:23:14;;;;;;;51.37;24.47;;;5.00;99.90;;;;;;4971788;28;20472;-83
2022/04/17 02:25:41;;;;;;;52.27;25.67;;;5.00;99.90;;;;;;4954366;28;20072;-82
2022/04/17 02:28:07;;;;;;;48.87;23.80;;;4.90;99.90;;;;;;4972011;28;20027;-82
2022/04/17 02:30:33;;;;;;;56.97;26.67;;;4.90;99.90;;;;;;4971725;28;20097;-82
2022/04/17 02:32:59;;;;;;;55.20;26.90;;;4.80;99.90;;;;;;4971589;28;20373;-82
2022/04/17 02:35:25;;;;;;;54.87;25.87;;;4.80;99.90;;;;;;4971672;28;20090;-82
2022/04/17 02:37:50;;;;;;;56.97;26.80;;;4.70;99.90;;;;;;4971576;28;20125;-83
2022/04/17 02:40:16;;;;;;;61.67;27.40;;;4.80;99.90;;;;;;4971310;28;20031;-83
2022/04/17 02:42:43;;;;;;;63.07;27.90;;;4.80;99.90;;;;;;4971674;28;20446;-82
2022/04/17 02:45:09;;;;;;;55.37;26.70;;;4.80;99.90;;;;;;4971511;28;20019;-82
2022/04/17 02:47:44;;;;;;;62.77;27.23;;;4.70;99.90;;;;;;4971133;28;20031;-83
2022/04/17 02:50:11;;;;;;;64.63;28.23;;;4.70;99.90;;;;;;4970761;28;20653;-83
2022/04/17 02:52:37;;;;;;;61.50;27.30;;;4.70;99.90;;;;;;4971406;28;20043;-82
2022/04/17 02:55:04;;;;;;;58.33;27.83;;;4.70;99.90;;;;;;4971267;28;20035;-82
2022/04/17 02:57:33;;;;;;;58.10;26.23;;;4.70;99.90;;;;;;4970782;28;20074;-81
2022/04/17 02:59:59;;;;;;;57.07;25.90;;;4.80;99.90;;;;;;4971416;28;20113;-82
2022/04/17 03:07:55;;;;;;;54.77;25.03;;;4.70;99.90;;;;;;4990460;28;20452;-75
2022/04/17 03:10:20;;;;;;;56.03;27.83;;;4.60;99.90;;;;;;4972844;28;20117;-75
2022/04/17 03:12:46;;;;;;;50.63;24.47;;;4.50;99.90;;;;;;4989928;28;20129;-75
2022/04/17 03:15:12;;;;;;;50.07;25.17;;;4.40;99.90;;;;;;4990130;28;20036;-75
2022/04/17 03:17:38;;;;;;;58.67;27.10;;;4.40;99.90;;;;;;4989621;28;20156;-75
2022/04/17 03:20:05;;;;;;;56.23;25.47;;;4.40;99.90;;;;;;4989599;28;20051;-75
2022/04/17 03:22:32;;;;;;;65.57;29.33;;;4.40;99.90;;;;;;4990270;28;20535;-76
2022/04/17 03:25:00;;;;;;;54.60;24.80;;;4.30;99.90;;;;;;4989867;28;20398;-75
2022/04/17 03:27:28;;;;;;;55.03;25.17;;;4.30;99.90;;;;;;4989755;28;20038;-75
2022/04/17 03:29:54;;;;;;;54.57;25.97;;;4.40;99.90;;;;;;4990066;28;20053;-76
2022/04/17 03:32:20;;;;;;;53.77;25.43;;;4.30;99.90;;;;;;4989630;28;20661;-75
2022/04/17 03:34:46;;;;;;;57.73;26.73;;;4.30;99.90;;;;;;4986001;28;20029;-75
2022/04/17 03:37:14;;;;;;;59.67;26.47;;;4.20;99.90;;;;;;4989615;28;20069;-75
2022/04/17 03:39:40;;;;;;;60.63;25.97;;;4.10;99.90;;;;;;4989916;28;20030;-75
2022/04/17 03:42:06;;;;;;;52.10;25.80;;;4.20;99.90;;;;;;4989825;28;20657;-75
2022/04/17 03:44:33;;;;;;;68.60;30.50;;;4.20;99.90;;;;;;4989660;28;20860;-75
2022/04/17 03:47:00;;;;;;;66.90;29.47;;;4.20;99.90;;;;;;4989150;28;20022;-75
2022/04/17 03:49:26;;;;;;;68.53;27.87;;;4.10;99.90;;;;;;4988882;28;20080;-75
2022/04/17 03:51:52;;;;;;;65.60;28.57;;;4.00;99.90;;;;;;4989279;28;20437;-75
2022/04/17 03:54:18;;;;;;;61.30;27.07;;;3.90;99.90;;;;;;4989444;28;20022;-75
2022/04/17 03:56:46;;;;;;;62.37;28.07;;;3.90;99.90;;;;;;4989354;28;20029;-75
2022/04/17 03:59:12;;;;;;;68.60;29.23;;;4.00;99.90;;;;;;4989911;28;20474;-76
2022/04/17 04:01:37;;;;;;;64.60;27.90;;;4.00;99.90;;;;;;4989325;28;20109;-75
2022/04/17 04:04:06;;;;;;;76.47;30.47;;;4.00;99.90;;;;;;4991091;23;20173;-81
2022/04/17 04:06:32;;;;;;;77.43;32.27;;;4.00;99.90;;;;;;4930168;28;20035;-81
2022/04/17 04:08:58;;;;;;;75.23;30.13;;;3.90;99.90;;;;;;4959481;28;20038;-81
2022/04/17 04:11:24;;;;;;;66.87;29.70;;;3.90;99.90;;;;;;4954905;28;20031;-80
2022/04/17 04:13:49;;;;;;;65.63;29.10;;;3.90;99.90;;;;;;4959705;28;20479;-81
2022/04/17 04:16:15;;;;;;;66.67;29.00;;;3.90;99.90;;;;;;4970144;28;20073;-82
2022/04/17 04:18:41;;;;;;;60.60;27.57;;;3.90;99.90;;;;;;4969376;28;20030;-81
2022/04/17 04:21:07;;;;;;;64.40;27.97;;;3.90;99.90;;;;;;4951965;28;20030;-81
2022/04/17 04:23:34;;;;;;;59.57;26.80;;;3.80;99.90;;;;;;4952210;28;20026;-81
2022/04/17 04:26:00;;;;;;;59.17;27.47;;;3.90;99.90;;;;;;4952177;28;20034;-81
2022/04/17 04:28:44;;;;;;;62.63;29.00;;;4.00;99.90;;;;;;4969277;28;20054;-80
2022/04/17 04:31:12;;;;;;;60.30;27.47;;;3.90;99.90;;;;;;4951768;28;20038;-81
2022/04/17 04:33:41;;;;;;;66.70;28.17;;;3.90;99.90;;;;;;4969176;28;20030;-81
2022/04/17 04:36:10;;;;;;;64.30;28.57;;;3.90;99.90;;;;;;4955259;28;20030;-81
2022/04/17 04:38:37;;;;;;;63.40;28.73;;;3.90;99.90;;;;;;4951778;28;20019;-81
2022/04/17 04:41:03;;;;;;;64.53;28.27;;;3.80;99.90;;;;;;4969329;28;20624;-82
2022/04/17 04:43:30;;;;;;;81.17;31.73;;;3.80;99.90;;;;;;4952099;28;20026;-81
2022/04/17 04:46:12;;;;;;;68.00;27.43;;;3.70;99.90;;;;;;4951729;28;20071;-81
2022/04/17 04:51:28;;;;;;;71.83;29.27;;;3.60;99.90;;;;;;4968920;28;20045;-81
2022/04/17 04:53:56;;;;;;;80.63;32.43;;;3.50;99.90;;;;;;4951407;28;20511;-82
2022/04/17 04:56:23;;;;;;;82.77;30.37;;;3.50;99.90;;;;;;4951261;28;20117;-81
2022/04/17 04:58:49;;;;;;;78.27;30.40;;;3.50;99.90;;;;;;4968772;28;20031;-81
2022/04/17 05:01:15;;;;;;;75.17;30.10;;;3.50;99.90;;;;;;4968937;28;20122;-81
2022/04/17 05:03:41;;;;;;;70.33;29.40;;;3.50;99.90;;;;;;4966057;23;20387;-76
2022/04/17 05:06:07;;;;;;;66.73;28.83;;;3.60;99.90;;;;;;4958371;28;20046;-74
2022/04/17 05:08:34;;;;;;;73.10;30.10;;;3.60;99.90;;;;;;4968424;28;20105;-77
2022/04/17 05:11:00;;;;;;;72.10;30.30;;;3.60;99.90;;;;;;4968425;28;20165;-77
2022/04/17 05:13:25;;;;;;;68.73;29.67;;;3.60;99.90;;;;;;4968703;28;20117;-76
2022/04/17 05:15:52;;;;;;;77.87;30.50;;;3.50;99.90;;;;;;4968736;28;20026;-76
2022/04/17 05:18:17;;;;;;;76.70;31.97;;;3.50;99.90;;;;;;4968641;28;20031;-76
2022/04/17 05:20:43;;;;;;;74.93;31.03;;;3.50;99.90;;;;;;4968631;28;20030;-76
2022/04/17 05:23:22;;;;;;;80.20;33.80;;;3.50;99.90;;;;;;4968581;28;20113;-74
2022/04/17 05:25:53;;;;;;;77.77;30.67;;;3.50;99.90;;;;;;4968531;28;20053;-77
2022/04/17 05:28:18;;;;;;;73.50;32.23;;;3.60;99.90;;;;;;4968471;28;20441;-77
2022/04/17 05:30:44;;;;;;;80.47;32.87;;;3.60;99.90;;;;;;4968891;28;20495;-74
2022/04/17 05:33:11;;;;;;;77.57;31.30;;;3.70;99.90;;;;;;4951114;28;20479;-77
2022/04/17 05:35:37;;;;;;;81.37;32.50;;;3.70;99.90;;;;;;4962454;28;20027;-76
2022/04/17 05:38:04;;;;;;;86.47;33.20;;;3.70;99.90;;;;;;4968620;28;20058;-77
2022/04/17 05:40:38;;;;;;;86.47;31.07;;;3.70;99.90;;;;;;4967980;28;20027;-77
2022/04/17 05:43:04;;;;;;;74.40;29.23;;;3.70;99.90;;;;;;4968047;28;20514;-76
2022/04/17 05:45:32;;;;;;;80.60;33.77;;;3.80;99.90;;;;;;4968201;28;20042;-76
2022/04/17 05:47:59;;;;;;;91.17;34.37;;;3.80;99.90;;;;;;4968625;28;20050;-74
2022/04/17 05:50:26;;;;;;;72.70;29.97;;;3.80;99.90;;;;;;4968351;28;20027;-77
2022/04/17 05:52:51;;;;;;;67.93;29.83;;;3.80;99.90;;;;;;4968269;28;20035;-76
2022/04/17 05:55:17;;;;;;;68.37;30.07;;;4.00;99.90;;;;;;4968672;28;20096;-76
2022/04/17 05:57:43;;;;;;;59.67;27.67;;;4.10;99.90;;;;;;4968398;28;20467;-76
2022/04/17 06:00:09;;;;;;;67.53;29.30;;;4.20;99.90;;;;;;4968102;28;20035;-76
2022/04/17 06:02:36;;;;;;;66.10;29.00;;;4.30;99.90;;;;;;4968116;28;20114;-74
2022/04/17 06:05:06;;;;;;;66.30;28.10;;;4.30;99.90;;;;;;4962945;23;20055;-80
2022/04/17 06:07:32;;;;;;;60.00;28.33;;;4.30;99.90;;;;;;4967230;28;20487;-80
2022/04/17 06:10:06;;;;;;;62.67;28.47;;;4.40;99.90;;;;;;4967198;28;20093;-80
2022/04/17 06:12:32;;;;;;;60.00;27.77;;;4.50;99.90;;;;;;4968338;28;20045;-80
2022/04/17 06:14:58;;;;;;;60.90;29.20;;;4.70;99.90;;;;;;4967578;28;20110;-80
2022/04/17 06:17:24;;;;;;;64.33;28.80;;;4.80;99.90;;;;;;4952053;28;20114;-80
2022/04/17 06:19:50;;;;;;;63.73;29.87;;;5.00;99.90;;;;;;4972317;28;20247;-80
2022/04/17 06:22:15;;;;;;;60.17;26.67;;;5.10;99.90;;;;;;4971947;28;20033;-81
2022/04/17 06:24:41;;;;;;;62.33;28.83;;;5.30;99.90;;;;;;4971712;28;20023;-80
2022/04/17 06:27:07;;;;;;;55.03;27.03;;;5.30;99.90;;;;;;4971800;28;20720;-81
2022/04/17 06:29:32;;;;;;;66.03;29.17;;;5.50;99.90;;;;;;4953854;28;20026;-80
2022/04/17 06:31:58;;;;;;;61.10;28.83;;;5.50;99.90;;;;;;4954191;28;20035;-80
2022/04/17 06:34:24;;;;;;;61.05;28.73;;;5.70;99.90;;;;;;4966898;28;20052;-80
2022/04/17 06:36:49;;;;;;;58.47;28.50;;;5.90;99.90;;;;;;4953882;28;20447;-81
2022/04/17 06:39:15;;;;;;;52.97;27.08;;;6.00;99.90;;;;;;4971131;28;20523;-80
2022/04/17 06:41:41;;;;;;;59.83;29.13;;;6.20;99.90;;;;;;4971744;28;20456;-80
2022/04/17 06:44:07;;;;;;;58.05;28.90;;;6.40;99.90;;;;;;4946545;28;20035;-80
2022/04/17 06:46:32;;;;;;;55.58;27.10;;;6.60;99.90;;;;;;4955795;28;20038;-80
2022/04/17 06:48:58;;;;;;;55.58;27.63;;;6.70;99.90;;;;;;4936387;28;20031;-81
2022/04/17 06:51:25;;;;;;;59.17;27.88;;;6.80;99.90;;;;;;4949491;28;20035;-84
2022/04/17 06:53:52;;;;;;;63.55;27.83;;;7.00;99.90;;;;;;4951768;28;20034;-84
2022/04/17 06:56:18;;;;;;;54.08;26.15;;;7.20;99.90;;;;;;4940246;29;20082;-83
2022/04/17 06:58:48;;;;;;;52.75;27.25;;;7.40;99.90;;;;;;4939081;28;20050;-84
2022/04/17 07:01:14;;;;;;;52.67;27.63;;;7.60;99.90;;;;;;4959863;28;20154;-83
2022/04/17 07:06:11;;;;;;;52.20;27.05;;;8.10;99.90;;;;;;4947398;28;20052;-77
2022/04/17 07:08:37;;;;;;;52.67;27.17;;;8.30;99.90;;;;;;4940921;28;20031;-77
2022/04/17 07:11:04;;;;;;;56.65;26.75;;;8.50;99.90;;;;;;4951056;28;20498;-77
2022/04/17 07:13:30;;;;;;;58.35;27.65;;;8.70;99.90;;;;;;4950337;28;20043;-74
2022/04/17 07:15:56;;;;;;;50.17;26.73;;;8.90;99.90;;;;;;4948607;28;20031;-76
2022/04/17 07:18:23;;;;;;;41.88;22.88;;;9.20;99.90;;;;;;4949374;28;20392;-76
2022/04/17 07:20:49;;;;;;;44.22;23.23;;;9.50;99.90;;;;;;4950533;28;20023;-76
2022/04/17 07:23:14;;;;;;;45.30;23.27;;;9.80;99.90;;;;;;4948902;28;20027;-76
2022/04/17 07:25:41;;;;;;;36.88;21.88;;;10.00;99.90;;;;;;4949284;28;20479;-77
2022/04/17 07:28:14;;;;;;;38.17;19.98;;;10.20;99.90;;;;;;4944741;28;20113;-76
2022/04/17 07:30:40;;;;;;;39.10;21.48;;;10.50;99.90;;;;;;4956838;28;20042;-76
2022/04/17 07:33:06;;;;;;;34.90;19.05;;;10.70;99.90;;;;;;4967505;28;20035;-77
2022/04/17 07:35:32;;;;;;;32.55;18.02;;;10.90;99.90;;;;;;4963199;28;20050;-77
2022/04/17 07:38:03;;;;;;;33.33;18.83;;;11.10;99.90;;;;;;4967324;28;20073;-77
2022/04/17 07:40:33;;;;;;;35.20;18.80;;;11.40;99.90;;;;;;4961840;28;20491;-76
2022/04/17 07:43:01;;;;;;;29.17;16.67;;;11.50;99.90;;;;;;4948496;28;20586;-77
2022/04/17 07:45:28;;;;;;;26.10;14.63;;;11.80;99.90;;;;;;4945062;28;20028;-76
2022/04/17 07:47:54;;;;;;;23.98;14.50;;;12.00;99.00;;;;;;4929943;28;20042;-77
2022/04/17 07:50:25;;;;;;;24.17;13.52;;;12.10;95.90;;;;;;4958281;28;20019;-76
2022/04/17 07:52:51;;;;;;;23.05;12.35;;;12.30;95.20;;;;;;4961423;28;20045;-76
2022/04/17 07:55:17;;;;;;;21.15;13.18;;;12.40;95.50;;;;;;4970159;28;20435;-77
2022/04/17 08:00:28;;;;;;;19.27;12.63;;;12.70;93.30;;;;;;4969990;28;20026;-76
2022/04/17 08:03:08;;;;;;;18.42;12.75;;;12.80;93.20;;;;;;4969786;28;20123;-75
2022/04/17 08:05:42;;;;;;;18.13;11.05;;;12.80;92.70;;;;;;4981672;23;20046;-82
2022/04/17 08:08:09;;;;;;;19.95;11.88;;;13.00;92.00;;;;;;4969647;28;20108;-82
2022/04/17 08:10:35;;;;;;;19.73;11.90;;;13.20;94.60;;;;;;4952091;28;20027;-80
2022/04/17 08:13:01;;;;;;;21.23;12.32;;;13.40;94.50;;;;;;4966806;28;20042;-81
2022/04/17 08:15:27;;;;;;;22.27;12.45;;;13.60;95.70;;;;;;4963617;28;20058;-81
2022/04/17 08:17:53;;;;;;;16.60;10.55;;;13.80;94.20;;;;;;4969572;28;20030;-82
2022/04/17 08:20:19;;;;;;;14.52;9.80;;;14.10;91.20;;;;;;4962220;28;20027;-82
2022/04/17 08:22:46;;;;;;;12.73;9.38;;;14.40;89.30;;;;;;4969518;28;20042;-80
2022/04/17 08:25:13;;;;;;;12.40;7.45;;;14.60;86.10;;;;;;4967594;28;20034;-82
2022/04/17 08:27:50;;;;;;;9.45;4.45;;;14.80;82.90;;;;;;4969454;28;20030;-81
2022/04/17 08:30:27;;;;;;;5.28;3.53;;;14.80;69.20;;;;;;4970076;28;21258;-80
2022/04/17 08:32:54;;;;;;;4.35;2.80;;;14.90;71.10;;;;;;4969830;28;20031;-79
2022/04/17 08:35:20;;;;;;;5.07;2.95;;;15.00;69.30;;;;;;4964908;28;20505;-80
2022/04/17 08:37:46;;;;;;;3.63;2.70;;;15.20;63.20;;;;;;4956082;28;20112;-80
2022/04/17 08:40:13;;;;;;;5.03;3.15;;;15.30;64.50;;;;;;4952557;28;20019;-79
2022/04/17 08:42:40;;;;;;;3.63;2.78;;;15.40;56.40;;;;;;4953623;28;20035;-79
2022/04/17 08:45:09;;;;;;;3.50;2.55;;;15.40;58.10;;;;;;4961683;28;20050;-78
2022/04/17 08:47:37;;;;;;;11.02;2.92;;;16.00;57.70;;;;;;4950673;28;20053;-81
2022/04/17 08:50:15;;;;;;;3.72;2.50;;;16.30;50.10;;;;;;4954084;28;20023;-79
2022/04/17 08:52:44;;;;;;;2.95;2.08;;;16.70;49.20;;;;;;4951192;28;20475;-80
2022/04/17 08:55:10;;;;;;;2.40;2.20;;;17.50;49.40;;;;;;4962495;28;20026;-78
2022/04/17 08:57:36;;;;;;;3.88;2.33;;;17.80;47.70;;;;;;4968578;28;20411;-78
2022/04/17 09:00:08;;;;;;;3.30;2.50;;;17.70;44.80;;;;;;4969147;28;20031;-79
2022/04/17 09:02:38;;;;;;;3.90;2.63;;;17.90;45.30;;;;;;4969130;28;20026;-79
2022/04/17 09:05:21;;;;;;;3.60;2.50;;;18.20;43.90;;;;;;4980662;23;20051;-75
2022/04/17 09:07:50;;;;;;;2.92;2.20;;;18.10;44.80;;;;;;4968481;28;20102;-76
2022/04/17 09:10:25;;;;;;;6.65;2.90;;;17.70;43.10;;;;;;4950757;28;20035;-75
2022/04/17 09:12:54;;;;;;;3.33;2.38;;;17.80;44.70;;;;;;4967836;28;20035;-76
2022/04/17 09:15:25;;;;;;;2.65;2.05;;;18.10;44.00;;;;;;4968789;28;20026;-76
2022/04/17 09:17:51;;;;;;;3.25;1.83;;;19.00;47.10;;;;;;4968131;28;20150;-76
2022/04/17 09:20:22;;;;;;;4.85;1.90;;;19.40;39.90;;;;;;4967160;28;20035;-75
2022/04/17 09:22:53;;;;;;;2.45;1.88;;;19.80;39.90;;;;;;4938505;28;20034;-76
2022/04/17 09:25:22;;;;;;;5.60;2.47;;;20.00;38.80;;;;;;4968792;28;20414;-75
2022/04/17 09:28:02;;;;;;;3.05;2.38;;;19.90;35.20;;;;;;4968244;28;20031;-75
2022/04/17 09:30:33;;;;;;;4.03;2.55;;;19.40;35.80;;;;;;4968512;28;20383;-73
2022/04/17 09:33:06;;;;;;;4.25;1.73;;;19.50;37.20;;;;;;4952230;28;20079;-74
2022/04/17 09:35:32;;;;;;;4.78;2.30;;;19.90;36.90;;;;;;4963975;28;20031;-74
2022/04/17 09:37:59;;;;;;;2.60;2.00;;;20.10;36.10;;;;;;4942502;28;20563;-75
2022/04/17 09:40:26;;;;;;;5.22;2.35;;;20.30;36.20;;;;;;4966602;28;20034;-75
2022/04/17 09:43:14;;;;;;;2.25;1.70;;;21.40;36.40;;;;;;4934602;28;20428;-75
2022/04/17 09:45:56;;;;;;;2.63;2.22;;;22.90;34.40;;;;;;4949996;28;20547;-75
2022/04/17 09:48:22;;;;;;;2.78;2.30;;;24.10;32.80;;;;;;4962514;28;20882;-75
2022/04/17 09:50:47;;;;;;;3.17;2.30;;;23.70;31.10;;;;;;4968075;28;20034;-74
2022/04/17 09:53:35;;;;;;;4.30;2.65;;;23.70;31.60;;;;;;4970827;28;20030;-74
2022/04/17 09:56:11;;;;;;;3.92;2.30;;;22.80;31.00;;;;;;4960585;28;20027;-74
2022/04/17 09:58:42;;;;;;;3.47;2.17;;;24.00;31.70;;;;;;4971253;28;20025;-74
2022/04/17 10:01:08;;;;;;;4.25;2.63;;;24.20;29.10;;;;;;4972046;28;20090;-76
2022/04/17 10:03:39;;;;;;;3.53;2.67;;;23.50;29.40;;;;;;4971819;28;20479;-74
2022/04/17 10:06:06;;;;;;;4.28;2.38;;;23.40;29.40;;;;;;4983921;23;20402;-78
2022/04/17 10:08:32;;;;;;;5.35;2.38;;;23.30;30.90;;;;;;4967027;28;20092;-79
2022/04/17 10:10:58;;;;;;;2.90;2.28;;;23.00;30.40;;;;;;4952481;28;20027;-82
2022/04/17 10:13:25;;;;;;;5.32;2.45;;;23.70;28.90;;;;;;4952252;29;20038;-81
2022/04/17 10:15:54;;;;;;;3.35;2.15;;;23.70;29.70;;;;;;4951734;28;20027;-77
2022/04/17 10:18:21;;;;;;;3.20;2.15;;;24.70;29.70;;;;;;4952230;28;20471;-79
2022/04/17 10:20:50;;;;;;;2.92;1.90;;;24.40;26.60;;;;;;4951915;28;20035;-82
2022/04/17 10:23:16;;;;;;;4.53;2.20;;;22.70;27.50;;;;;;4952294;28;20035;-82
2022/04/17 10:25:47;;;;;;;4.75;2.13;;;22.90;29.20;;;;;;4952216;29;20024;-78
2022/04/17 10:28:15;;;;;;;3.20;2.22;;;23.00;31.00;;;;;;4951945;28;20063;-79
2022/04/17 10:31:20;;;;;;;4.60;2.22;;;23.00;28.50;;;;;;4952268;28;20034;-80
2022/04/17 10:34:16;;;;;;;2.85;2.20;;;23.90;29.70;;;;;;4870529;29;20085;-83
2022/04/17 10:36:50;;;;;;;5.47;2.70;;;23.90;30.00;;;;;;4872578;29;20661;-82
2022/04/17 10:39:29;;;;;;;3.92;2.22;;;23.30;27.00;;;;;;4930253;29;20043;-81
2022/04/17 10:41:55;;;;;;;2.80;2.38;;;23.50;29.40;;;;;;4951904;28;20035;-81
2022/04/17 10:44:28;;;;;;;2.70;2.38;;;23.80;27.50;;;;;;4951853;29;20564;-80
2022/04/17 10:46:54;;;;;;;6.13;2.90;;;23.30;28.80;;;;;;4951861;28;20059;-80
2022/04/17 10:49:22;;;;;;;3.50;2.47;;;24.00;28.40;;;;;;4934270;29;20031;-83
2022/04/17 10:51:53;;;;;;;4.22;2.70;;;25.70;27.50;;;;;;4951738;29;20125;-82
2022/04/17 10:54:19;;;;;;;;;;;25.50;27.20;;;;;;4952297;28;20027;-82
2022/04/17 10:57:05;;;;;;;4.22;3.00;;;26.60;25.30;;;;;;4951055;28;19933;-82
2022/04/17 10:59:35;;;;;;;4.25;3.03;;;26.40;28.60;;;;;;4937583;29;20109;-82
2022/04/17 11:02:22;;;;;;;3.55;2.60;;;24.70;25.90;;;;;;4946862;29;20044;-81
2022/04/17 11:04:55;;;;;;;3.42;2.60;;;24.70;27.40;;;;;;4958250;23;20074;-75
2022/04/17 11:07:24;;;;;;;3.90;2.58;;;25.10;29.10;;;;;;4951630;28;20067;-75
2022/04/17 11:10:06;;;;;;;3.25;2.65;;;26.70;26.10;;;;;;4951837;29;20024;-75
2022/04/17 11:12:44;;;;;;;;;;;26.50;27.00;;;;;;4951611;28;20066;-74
2022/04/17 11:15:10;;;;;;;4.82;2.65;;;26.30;26.80;;;;;;4966014;28;20001;-75
2022/04/17 11:17:39;;;;;;;3.90;2.63;;;26.60;26.60;;;;;;4945904;28;20445;-74
2022/04/17 11:20:07;;;;;;;3.85;2.60;;;25.50;25.60;;;;;;4941548;29;20037;-75
2022/04/17 11:22:37;;;;;;;4.70;3.00;;;24.50;29.20;;;;;;4950847;28;20070;-75
2022/04/17 11:25:13;;;;;;;4.63;2.78;;;24.70;29.20;;;;;;4950826;29;20094;-74
2022/04/17 11:27:46;;;;;;;4.68;2.00;;;25.70;28.40;;;;;;4951290;28;20510;-75
2022/04/17 11:30:15;;;;;;;4.32;2.70;;;25.20;28.40;;;;;;4951423;28;20038;-75
2022/04/17 11:32:41;;;;;;;5.10;2.20;;;25.70;28.00;;;;;;4951097;28;20031;-75
2022/04/17 11:35:08;;;;;;;5.38;2.10;;;26.10;27.90;;;;;;4951266;29;20039;-75
2022/04/17 11:37:34;;;;;;;3.38;2.38;;;27.00;27.60;;;;;;4950980;28;20678;-75
2022/04/17 11:40:15;;;;;;;3.17;1.98;;;26.60;27.30;;;;;;4951369;29;20426;-75
2022/04/17 11:42:45;;;;;;;3.45;2.10;;;27.30;28.50;;;;;;4951271;28;20023;-75
2022/04/17 11:45:31;;;;;;;2.35;1.85;;;26.80;28.00;;;;;;4951337;29;20169;-75
2022/04/17 11:48:04;;;;;;;3.33;2.55;;;26.80;27.30;;;;;;4951195;28;20040;-75
2022/04/17 11:50:30;;;;;;;4.20;2.22;;;26.80;28.30;;;;;;4951015;28;20031;-75
2022/04/17 11:53:05;;;;;;;4.30;2.03;;;26.80;28.30;;;;;;4950878;28;20039;-75
2022/04/17 11:55:36;;;;;;;3.67;2.40;;;26.60;28.20;;;;;;4951271;29;20384;-74
2022/04/17 11:58:03;;;;;;;6.85;2.53;;;27.50;26.60;;;;;;4951268;28;20035;-74
2022/04/17 12:00:30;;;;;;;4.35;2.22;;;26.20;29.10;;;;;;4951018;28;20546;-74
2022/04/17 12:03:01;;;;;;;3.60;2.40;;;27.40;27.70;;;;;;4950580;29;20089;-74
2022/04/17 12:05:29;;;;;;;4.13;2.60;;;26.10;27.60;;;;;;4970287;23;20508;-82
2022/04/17 12:08:09;;;;;;;4.53;2.40;;;26.80;29.20;;;;;;4970292;28;20073;-82
2022/04/17 12:10:38;;;;;;;5.55;2.63;;;27.80;28.00;;;;;;4958452;28;20030;-81
2022/04/17 12:13:21;;;;;;;3.22;2.22;;;27.30;27.80;;;;;;4952140;28;20050;-82
2022/04/17 12:15:57;;;;;;;3.45;2.30;;;27.80;27.50;;;;;;4967567;28;20113;-83
2022/04/17 12:18:23;;;;;;;4.07;2.60;;;27.60;27.90;;;;;;4969347;28;20019;-82
2022/04/17 12:20:59;;;;;;;4.20;2.45;;;27.00;26.40;;;;;;4951909;28;20026;-82
2022/04/17 12:23:26;;;;;;;3.45;2.40;;;26.80;25.60;;;;;;4968638;28;20038;-82
2022/04/17 12:25:52;;;;;;;3.40;2.08;;;26.40;25.50;;;;;;4969431;28;20027;-83
2022/04/17 12:28:19;;;;;;;3.33;2.42;;;27.00;26.30;;;;;;4969411;28;20027;-82
2022/04/17 12:30:45;;;;;;;4.72;2.80;;;26.20;27.10;;;;;;4969653;28;20766;-82
2022/04/17 12:33:28;;;;;;;6.35;2.75;;;25.00;28.40;;;;;;4969680;28;20043;-81
2022/04/17 12:36:15;;;;;;;5.18;3.20;;;25.00;29.50;;;;;;4967494;28;20129;-82
2022/04/17 12:38:54;;;;;;;6.28;2.63;;;25.80;28.30;;;;;;4969370;28;20027;-82
2022/04/17 12:41:28;;;;;;;4.80;3.15;;;26.30;27.10;;;;;;4969476;28;20026;-81
2022/04/17 12:43:54;;;;;;;4.13;2.67;;;25.70;29.10;;;;;;4952023;28;20708;-82
2022/04/17 12:46:31;;;;;;;4.97;2.80;;;25.80;29.10;;;;;;4967853;28;20042;-81
2022/04/17 12:49:11;;;;;;;4.00;2.70;;;26.40;29.10;;;;;;4969052;28;20411;-82
2022/04/17 12:51:52;;;;;;;4.63;2.85;;;26.60;27.70;;;;;;4959680;28;20026;-82
2022/04/17 12:54:18;;;;;;;;;;;27.40;28.40;;;;;;4959808;28;20038;-82
2022/04/17 12:56:47;;;;;;;4.38;2.65;;;26.90;27.70;;;;;;4969182;28;19926;-81
2022/04/17 12:59:18;;;;;;;3.42;2.72;;;26.30;28.10;;;;;;4969054;28;20038;-81
2022/04/17 13:01:48;;;;;;;3.85;2.90;;;26.70;28.40;;;;;;4967531;28;20467;-81
2022/04/17 13:04:20;;;;;;;4.68;3.08;;;27.00;26.80;;;;;;4981466;23;20168;-74